sensor_id;sensor_type;location;lat;lon;timestamp;temperature;humidity
69281;SHT31;56392;51.082;17.080;2022-12-07T00:00:27;3.83;85.82
69281;SHT31;56392;51.082;17.080;2022-12-07T00:05:51;3.93;85.68
69281;SHT31;56392;51.082;17.080;2022-12-07T00:11:16;3.87;86.03
69281;SHT31;56392;51.082;17.080;2022-12-07T00:16:40;3.98;85.87
69281;SHT31;56392;51.082;17.080;2022-12-07T00:22:04;3.93;85.76
69281;SHT31;56392;51.082;17.080;2022-12-07T00:27:27;3.93;85.65
69281;SHT31;56392;51.082;17.080;2022-12-07T00:32:50;3.93;85.62
69281;SHT31;56392;51.082;17.080;2022-12-07T00:38:15;3.91;85.44
69281;SHT31;56392;51.082;17.080;2022-12-07T00:43:39;3.91;85.59
69281;SHT31;56392;51.082;17.080;2022-12-07T00:49:03;3.85;85.30
69281;SHT31;56392;51.082;17.080;2022-12-07T00:54:27;3.93;85.32
69281;SHT31;56392;51.082;17.080;2022-12-07T00:59:50;3.93;85.24
69281;SHT31;56392;51.082;17.080;2022-12-07T01:05:16;3.90;85.23
69281;SHT31;56392;51.082;17.080;2022-12-07T01:10:41;3.89;85.29
69281;SHT31;56392;51.082;17.080;2022-12-07T01:16:05;3.89;85.02
69281;SHT31;56392;51.082;17.080;2022-12-07T01:21:30;3.93;85.06
69281;SHT31;56392;51.082;17.080;2022-12-07T01:26:57;3.85;85.00
69281;SHT31;56392;51.082;17.080;2022-12-07T01:32:20;3.89;84.91
69281;SHT31;56392;51.082;17.080;2022-12-07T01:37:43;3.80;85.07
69281;SHT31;56392;51.082;17.080;2022-12-07T01:43:15;3.76;85.35
69281;SHT31;56392;51.082;17.080;2022-12-07T01:48:40;3.79;85.27
69281;SHT31;56392;51.082;17.080;2022-12-07T01:54:04;3.77;85.20
69281;SHT31;56392;51.082;17.080;2022-12-07T01:59:29;3.69;85.25
69281;SHT31;56392;51.082;17.080;2022-12-07T02:04:53;3.76;85.31
69281;SHT31;56392;51.082;17.080;2022-12-07T02:10:20;3.72;85.14
69281;SHT31;56392;51.082;17.080;2022-12-07T02:21:34;3.73;85.50
69281;SHT31;56392;51.082;17.080;2022-12-07T02:27:28;3.69;85.66
69281;SHT31;56392;51.082;17.080;2022-12-07T02:32:57;3.70;85.29
69281;SHT31;56392;51.082;17.080;2022-12-07T02:38:26;3.63;85.25
69281;SHT31;56392;51.082;17.080;2022-12-07T02:43:53;3.58;85.53
69281;SHT31;56392;51.082;17.080;2022-12-07T02:49:19;3.49;85.70
69281;SHT31;56392;51.082;17.080;2022-12-07T02:54:44;3.46;85.73
69281;SHT31;56392;51.082;17.080;2022-12-07T03:00:09;3.54;85.68
69281;SHT31;56392;51.082;17.080;2022-12-07T03:05:46;3.49;85.39
69281;SHT31;56392;51.082;17.080;2022-12-07T03:11:14;3.55;85.57
69281;SHT31;56392;51.082;17.080;2022-12-07T03:16:41;3.54;85.59
69281;SHT31;56392;51.082;17.080;2022-12-07T03:22:10;3.62;85.47
69281;SHT31;56392;51.082;17.080;2022-12-07T03:27:37;3.54;85.71
69281;SHT31;56392;51.082;17.080;2022-12-07T03:33:04;3.56;85.72
69281;SHT31;56392;51.082;17.080;2022-12-07T03:38:34;3.56;85.99
69281;SHT31;56392;51.082;17.080;2022-12-07T03:43:59;3.58;85.86
69281;SHT31;56392;51.082;17.080;2022-12-07T03:49:25;3.55;85.70
69281;SHT31;56392;51.082;17.080;2022-12-07T03:54:55;3.59;85.85
69281;SHT31;56392;51.082;17.080;2022-12-07T04:00:19;3.58;85.91
69281;SHT31;56392;51.082;17.080;2022-12-07T04:05:42;3.59;86.00
69281;SHT31;56392;51.082;17.080;2022-12-07T04:11:07;3.56;85.83
69281;SHT31;56392;51.082;17.080;2022-12-07T04:16:30;3.54;86.01
69281;SHT31;56392;51.082;17.080;2022-12-07T04:21:53;3.60;85.67
69281;SHT31;56392;51.082;17.080;2022-12-07T04:27:18;3.60;85.73
69281;SHT31;56392;51.082;17.080;2022-12-07T04:32:41;3.60;85.80
69281;SHT31;56392;51.082;17.080;2022-12-07T04:38:04;3.59;86.00
69281;SHT31;56392;51.082;17.080;2022-12-07T04:43:29;3.55;85.88
69281;SHT31;56392;51.082;17.080;2022-12-07T04:48:53;3.59;85.99
69281;SHT31;56392;51.082;17.080;2022-12-07T04:54:17;3.56;85.99
69281;SHT31;56392;51.082;17.080;2022-12-07T04:59:42;3.56;86.22
69281;SHT31;56392;51.082;17.080;2022-12-07T05:05:06;3.54;86.07
69281;SHT31;56392;51.082;17.080;2022-12-07T05:10:29;3.59;86.13
69281;SHT31;56392;51.082;17.080;2022-12-07T05:15:53;3.56;86.43
69281;SHT31;56392;51.082;17.080;2022-12-07T05:21:16;3.62;86.23
69281;SHT31;56392;51.082;17.080;2022-12-07T05:26:39;3.63;86.11
69281;SHT31;56392;51.082;17.080;2022-12-07T05:32:04;3.63;86.25
69281;SHT31;56392;51.082;17.080;2022-12-07T05:37:27;3.69;86.20
69281;SHT31;56392;51.082;17.080;2022-12-07T05:42:50;3.67;85.87
69281;SHT31;56392;51.082;17.080;2022-12-07T05:48:14;3.69;85.87
69281;SHT31;56392;51.082;17.080;2022-12-07T05:53:37;3.69;85.80
69281;SHT31;56392;51.082;17.080;2022-12-07T05:59:01;3.72;85.90
69281;SHT31;56392;51.082;17.080;2022-12-07T06:04:44;3.65;85.44
69281;SHT31;56392;51.082;17.080;2022-12-07T06:10:08;3.70;85.52
69281;SHT31;56392;51.082;17.080;2022-12-07T06:15:31;3.62;85.19
69281;SHT31;56392;51.082;17.080;2022-12-07T06:20:55;3.65;84.84
69281;SHT31;56392;51.082;17.080;2022-12-07T06:26:18;3.67;84.61
69281;SHT31;56392;51.082;17.080;2022-12-07T06:31:41;3.65;84.18
69281;SHT31;56392;51.082;17.080;2022-12-07T06:37:06;3.58;84.15
69281;SHT31;56392;51.082;17.080;2022-12-07T06:42:29;3.65;83.54
69281;SHT31;56392;51.082;17.080;2022-12-07T06:47:52;3.63;83.38
69281;SHT31;56392;51.082;17.080;2022-12-07T06:53:16;3.54;83.43
69281;SHT31;56392;51.082;17.080;2022-12-07T06:58:39;3.51;83.23
69281;SHT31;56392;51.082;17.080;2022-12-07T07:04:03;3.67;83.24
69281;SHT31;56392;51.082;17.080;2022-12-07T07:09:27;3.63;82.91
69281;SHT31;56392;51.082;17.080;2022-12-07T07:14:50;3.62;82.67
69281;SHT31;56392;51.082;17.080;2022-12-07T07:20:13;3.59;82.15
69281;SHT31;56392;51.082;17.080;2022-12-07T07:25:38;3.70;82.14
69281;SHT31;56392;51.082;17.080;2022-12-07T07:31:01;3.69;82.10
69281;SHT31;56392;51.082;17.080;2022-12-07T07:36:24;3.66;81.86
69281;SHT31;56392;51.082;17.080;2022-12-07T07:41:49;3.70;81.75
69281;SHT31;56392;51.082;17.080;2022-12-07T07:47:12;3.63;81.75
69281;SHT31;56392;51.082;17.080;2022-12-07T07:52:35;3.73;81.62
69281;SHT31;56392;51.082;17.080;2022-12-07T07:57:59;3.82;81.19
69281;SHT31;56392;51.082;17.080;2022-12-07T08:03:22;3.94;81.24
69281;SHT31;56392;51.082;17.080;2022-12-07T08:08:45;3.91;80.62
69281;SHT31;56392;51.082;17.080;2022-12-07T08:14:11;3.94;80.74
69281;SHT31;56392;51.082;17.080;2022-12-07T08:19:34;3.98;80.71
69281;SHT31;56392;51.082;17.080;2022-12-07T08:24:57;4.01;80.55
69281;SHT31;56392;51.082;17.080;2022-12-07T08:30:22;3.97;80.18
69281;SHT31;56392;51.082;17.080;2022-12-07T08:35:45;3.94;79.98
69281;SHT31;56392;51.082;17.080;2022-12-07T08:41:09;4.03;80.23
69281;SHT31;56392;51.082;17.080;2022-12-07T08:46:37;4.18;79.90
69281;SHT31;56392;51.082;17.080;2022-12-07T08:52:04;4.37;79.64
69281;SHT31;56392;51.082;17.080;2022-12-07T08:57:28;4.44;78.85
69281;SHT31;56392;51.082;17.080;2022-12-07T09:02:53;4.45;78.34
69281;SHT31;56392;51.082;17.080;2022-12-07T09:08:16;4.62;78.15
69281;SHT31;56392;51.082;17.080;2022-12-07T09:13:39;4.76;77.44
69281;SHT31;56392;51.082;17.080;2022-12-07T09:19:04;4.89;77.24
69281;SHT31;56392;51.082;17.080;2022-12-07T09:24:28;5.00;76.62
69281;SHT31;56392;51.082;17.080;2022-12-07T09:29:51;4.99;75.55
69281;SHT31;56392;51.082;17.080;2022-12-07T09:35:15;5.05;75.82
69281;SHT31;56392;51.082;17.080;2022-12-07T09:40:39;5.12;75.01
69281;SHT31;56392;51.082;17.080;2022-12-07T09:46:03;5.16;74.36
69281;SHT31;56392;51.082;17.080;2022-12-07T09:51:27;5.13;73.99
69281;SHT31;56392;51.082;17.080;2022-12-07T09:56:50;5.16;74.07
69281;SHT31;56392;51.082;17.080;2022-12-07T10:02:34;5.17;74.90
69281;SHT31;56392;51.082;17.080;2022-12-07T10:07:58;5.20;74.91
69281;SHT31;56392;51.082;17.080;2022-12-07T10:13:23;5.34;75.05
69281;SHT31;56392;51.082;17.080;2022-12-07T10:18:56;5.40;75.01
69281;SHT31;56392;51.082;17.080;2022-12-07T10:24:22;5.40;75.12
69281;SHT31;56392;51.082;17.080;2022-12-07T10:29:48;5.38;75.40
69281;SHT31;56392;51.082;17.080;2022-12-07T10:35:22;5.34;75.63
69281;SHT31;56392;51.082;17.080;2022-12-07T10:41:03;5.30;75.84
69281;SHT31;56392;51.082;17.080;2022-12-07T10:46:53;5.23;76.07
69281;SHT31;56392;51.082;17.080;2022-12-07T10:52:34;5.19;76.33
69281;SHT31;56392;51.082;17.080;2022-12-07T10:58:20;5.19;76.04
69281;SHT31;56392;51.082;17.080;2022-12-07T11:09:47;5.07;75.87
69281;SHT31;56392;51.082;17.080;2022-12-07T11:15:18;4.99;76.00
69281;SHT31;56392;51.082;17.080;2022-12-07T11:20:49;4.89;77.08
69281;SHT31;56392;51.082;17.080;2022-12-07T11:26:24;4.92;76.89
69281;SHT31;56392;51.082;17.080;2022-12-07T11:31:59;4.95;77.00
69281;SHT31;56392;51.082;17.080;2022-12-07T11:37:29;4.97;76.88
69281;SHT31;56392;51.082;17.080;2022-12-07T11:42:58;5.00;76.90
69281;SHT31;56392;51.082;17.080;2022-12-07T11:48:30;5.06;77.04
69281;SHT31;56392;51.082;17.080;2022-12-07T11:53:58;5.00;76.55
69281;SHT31;56392;51.082;17.080;2022-12-07T11:59:27;5.00;76.69
69281;SHT31;56392;51.082;17.080;2022-12-07T12:04:59;4.96;76.99
69281;SHT31;56392;51.082;17.080;2022-12-07T12:10:35;4.90;77.82
69281;SHT31;56392;51.082;17.080;2022-12-07T12:16:13;4.79;78.47
69281;SHT31;56392;51.082;17.080;2022-12-07T12:21:42;4.75;78.93
69281;SHT31;56392;51.082;17.080;2022-12-07T12:27:08;4.78;78.46
69281;SHT31;56392;51.082;17.080;2022-12-07T12:32:36;4.85;78.45
69281;SHT31;56392;51.082;17.080;2022-12-07T12:38:33;4.86;78.34
69281;SHT31;56392;51.082;17.080;2022-12-07T12:43:56;4.89;78.12
69281;SHT31;56392;51.082;17.080;2022-12-07T12:49:43;4.90;77.84
69281;SHT31;56392;51.082;17.080;2022-12-07T12:55:15;4.89;77.58
69281;SHT31;56392;51.082;17.080;2022-12-07T13:00:41;4.90;77.80
69281;SHT31;56392;51.082;17.080;2022-12-07T13:06:18;4.88;77.40
69281;SHT31;56392;51.082;17.080;2022-12-07T13:11:44;4.95;77.92
69281;SHT31;56392;51.082;17.080;2022-12-07T13:17:09;4.96;77.22
69281;SHT31;56392;51.082;17.080;2022-12-07T13:22:50;4.97;77.19
69281;SHT31;56392;51.082;17.080;2022-12-07T13:28:17;4.97;77.16
69281;SHT31;56392;51.082;17.080;2022-12-07T13:33:43;4.95;76.75
69281;SHT31;56392;51.082;17.080;2022-12-07T13:39:17;4.97;77.23
69281;SHT31;56392;51.082;17.080;2022-12-07T13:44:42;4.95;77.05
69281;SHT31;56392;51.082;17.080;2022-12-07T13:50:22;4.95;76.73
69281;SHT31;56392;51.082;17.080;2022-12-07T13:55:46;4.88;76.57
69281;SHT31;56392;51.082;17.080;2022-12-07T14:01:11;4.86;76.91
69281;SHT31;56392;51.082;17.080;2022-12-07T14:06:35;4.85;76.64
69281;SHT31;56392;51.082;17.080;2022-12-07T14:11:58;4.88;76.61
69281;SHT31;56392;51.082;17.080;2022-12-07T14:17:24;4.83;76.69
69281;SHT31;56392;51.082;17.080;2022-12-07T14:22:54;4.83;76.65
69281;SHT31;56392;51.082;17.080;2022-12-07T14:28:28;4.85;76.45
69281;SHT31;56392;51.082;17.080;2022-12-07T14:33:53;4.83;76.03
69281;SHT31;56392;51.082;17.080;2022-12-07T14:39:16;4.73;76.13
69281;SHT31;56392;51.082;17.080;2022-12-07T14:44:40;4.71;76.10
69281;SHT31;56392;51.082;17.080;2022-12-07T14:50:05;4.68;75.81
69281;SHT31;56392;51.082;17.080;2022-12-07T14:55:30;4.68;75.49
69281;SHT31;56392;51.082;17.080;2022-12-07T15:00:54;4.64;75.41
69281;SHT31;56392;51.082;17.080;2022-12-07T15:06:18;4.54;75.74
69281;SHT31;56392;51.082;17.080;2022-12-07T15:11:43;4.51;75.89
69281;SHT31;56392;51.082;17.080;2022-12-07T15:17:09;4.51;75.93
69281;SHT31;56392;51.082;17.080;2022-12-07T15:22:34;4.47;75.90
69281;SHT31;56392;51.082;17.080;2022-12-07T15:27:59;4.51;76.07
69281;SHT31;56392;51.082;17.080;2022-12-07T15:33:22;4.47;76.12
69281;SHT31;56392;51.082;17.080;2022-12-07T15:38:47;4.42;76.24
69281;SHT31;56392;51.082;17.080;2022-12-07T15:44:11;4.48;76.31
69281;SHT31;56392;51.082;17.080;2022-12-07T15:49:52;4.51;76.40
69281;SHT31;56392;51.082;17.080;2022-12-07T15:55:16;4.54;76.23
69281;SHT31;56392;51.082;17.080;2022-12-07T16:00:39;4.54;76.19
69281;SHT31;56392;51.082;17.080;2022-12-07T16:06:06;4.52;76.22
69281;SHT31;56392;51.082;17.080;2022-12-07T16:11:33;4.49;76.45
69281;SHT31;56392;51.082;17.080;2022-12-07T16:16:57;4.54;76.55
69281;SHT31;56392;51.082;17.080;2022-12-07T16:22:21;4.49;76.93
69281;SHT31;56392;51.082;17.080;2022-12-07T16:27:45;4.52;76.85
69281;SHT31;56392;51.082;17.080;2022-12-07T16:33:08;4.44;77.26
69281;SHT31;56392;51.082;17.080;2022-12-07T16:38:31;4.40;77.40
69281;SHT31;56392;51.082;17.080;2022-12-07T16:43:55;4.35;77.36
69281;SHT31;56392;51.082;17.080;2022-12-07T16:49:18;4.31;77.30
69281;SHT31;56392;51.082;17.080;2022-12-07T16:54:41;4.17;77.38
69281;SHT31;56392;51.082;17.080;2022-12-07T17:00:09;4.16;77.45
69281;SHT31;56392;51.082;17.080;2022-12-07T17:05:32;4.11;77.53
69281;SHT31;56392;51.082;17.080;2022-12-07T17:10:55;4.06;77.61
69281;SHT31;56392;51.082;17.080;2022-12-07T17:16:20;4.03;77.61
69281;SHT31;56392;51.082;17.080;2022-12-07T17:21:43;4.01;77.41
69281;SHT31;56392;51.082;17.080;2022-12-07T17:27:06;3.90;77.64
69281;SHT31;56392;51.082;17.080;2022-12-07T17:32:31;3.85;77.75
69281;SHT31;56392;51.082;17.080;2022-12-07T17:37:54;3.83;77.82
69281;SHT31;56392;51.082;17.080;2022-12-07T17:43:17;3.80;77.81
69281;SHT31;56392;51.082;17.080;2022-12-07T17:48:42;3.70;77.82
69281;SHT31;56392;51.082;17.080;2022-12-07T17:54:05;3.59;77.89
69281;SHT31;56392;51.082;17.080;2022-12-07T17:59:28;3.35;78.31
69281;SHT31;56392;51.082;17.080;2022-12-07T18:04:52;3.34;78.57
69281;SHT31;56392;51.082;17.080;2022-12-07T18:10:15;3.36;78.36
69281;SHT31;56392;51.082;17.080;2022-12-07T18:15:38;3.36;78.25
69281;SHT31;56392;51.082;17.080;2022-12-07T18:21:06;3.38;77.96
69281;SHT31;56392;51.082;17.080;2022-12-07T18:26:31;3.28;77.87
69281;SHT31;56392;51.082;17.080;2022-12-07T18:31:56;3.08;78.33
69281;SHT31;56392;51.082;17.080;2022-12-07T18:37:20;2.95;78.51
69281;SHT31;56392;51.082;17.080;2022-12-07T18:42:48;2.79;78.81
69281;SHT31;56392;51.082;17.080;2022-12-07T18:48:11;2.67;79.21
69281;SHT31;56392;51.082;17.080;2022-12-07T18:53:35;2.57;79.30
69281;SHT31;56392;51.082;17.080;2022-12-07T18:59:00;2.52;79.49
69281;SHT31;56392;51.082;17.080;2022-12-07T19:04:40;2.52;79.65
69281;SHT31;56392;51.082;17.080;2022-12-07T19:10:07;2.43;79.75
69281;SHT31;56392;51.082;17.080;2022-12-07T19:15:30;2.49;80.05
69281;SHT31;56392;51.082;17.080;2022-12-07T19:20:55;2.54;80.03
69281;SHT31;56392;51.082;17.080;2022-12-07T19:26:19;2.53;80.13
69281;SHT31;56392;51.082;17.080;2022-12-07T19:31:43;2.68;80.07
69281;SHT31;56392;51.082;17.080;2022-12-07T19:37:07;2.79;79.77
69281;SHT31;56392;51.082;17.080;2022-12-07T19:42:35;2.84;79.60
69281;SHT31;56392;51.082;17.080;2022-12-07T19:47:58;2.72;79.58
69281;SHT31;56392;51.082;17.080;2022-12-07T19:53:21;2.60;79.99
69281;SHT31;56392;51.082;17.080;2022-12-07T19:58:48;2.56;80.56
69281;SHT31;56392;51.082;17.080;2022-12-07T20:04:14;2.60;80.62
69281;SHT31;56392;51.082;17.080;2022-12-07T20:09:38;2.63;80.69
69281;SHT31;56392;51.082;17.080;2022-12-07T20:15:05;2.72;80.62
69281;SHT31;56392;51.082;17.080;2022-12-07T20:20:30;2.76;80.52
69281;SHT31;56392;51.082;17.080;2022-12-07T20:25:55;2.79;80.35
69281;SHT31;56392;51.082;17.080;2022-12-07T20:31:21;2.73;80.42
69281;SHT31;56392;51.082;17.080;2022-12-07T20:36:45;2.74;80.39
69281;SHT31;56392;51.082;17.080;2022-12-07T20:42:09;2.64;80.35
69281;SHT31;56392;51.082;17.080;2022-12-07T20:47:52;2.52;80.64
69281;SHT31;56392;51.082;17.080;2022-12-07T20:53:15;2.58;81.37
69281;SHT31;56392;51.082;17.080;2022-12-07T20:58:39;2.72;81.51
69281;SHT31;56392;51.082;17.080;2022-12-07T21:04:04;2.88;81.29
69281;SHT31;56392;51.082;17.080;2022-12-07T21:09:27;3.01;81.31
69281;SHT31;56392;51.082;17.080;2022-12-07T21:14:50;3.08;80.93
69281;SHT31;56392;51.082;17.080;2022-12-07T21:20:15;3.21;80.23
69281;SHT31;56392;51.082;17.080;2022-12-07T21:25:38;3.31;79.98
69281;SHT31;56392;51.082;17.080;2022-12-07T21:31:01;3.38;79.88
69281;SHT31;56392;51.082;17.080;2022-12-07T21:36:25;3.46;79.72
69281;SHT31;56392;51.082;17.080;2022-12-07T21:41:48;3.51;79.51
69281;SHT31;56392;51.082;17.080;2022-12-07T21:47:11;3.58;79.32
69281;SHT31;56392;51.082;17.080;2022-12-07T21:52:36;3.60;79.42
69281;SHT31;56392;51.082;17.080;2022-12-07T21:57:59;3.63;79.17
69281;SHT31;56392;51.082;17.080;2022-12-07T22:03:22;3.62;79.00
69281;SHT31;56392;51.082;17.080;2022-12-07T22:08:48;3.66;79.21
69281;SHT31;56392;51.082;17.080;2022-12-07T22:14:12;3.69;79.21
69281;SHT31;56392;51.082;17.080;2022-12-07T22:19:52;3.73;79.36
69281;SHT31;56392;51.082;17.080;2022-12-07T22:25:17;3.73;79.23
69281;SHT31;56392;51.082;17.080;2022-12-07T22:30:40;3.73;79.40
69281;SHT31;56392;51.082;17.080;2022-12-07T22:36:04;3.76;79.17
69281;SHT31;56392;51.082;17.080;2022-12-07T22:41:30;3.77;79.09
69281;SHT31;56392;51.082;17.080;2022-12-07T22:46:53;3.77;79.11
69281;SHT31;56392;51.082;17.080;2022-12-07T22:52:16;3.69;79.24
69281;SHT31;56392;51.082;17.080;2022-12-07T22:57:40;3.58;79.48
69281;SHT31;56392;51.082;17.080;2022-12-07T23:03:03;3.49;79.80
69281;SHT31;56392;51.082;17.080;2022-12-07T23:08:26;3.39;80.35
69281;SHT31;56392;51.082;17.080;2022-12-07T23:13:51;3.32;80.74
69281;SHT31;56392;51.082;17.080;2022-12-07T23:19:14;3.31;80.55
69281;SHT31;56392;51.082;17.080;2022-12-07T23:24:38;3.28;80.61
69281;SHT31;56392;51.082;17.080;2022-12-07T23:30:03;3.25;80.62
69281;SHT31;56392;51.082;17.080;2022-12-07T23:35:26;3.21;80.87
69281;SHT31;56392;51.082;17.080;2022-12-07T23:40:49;3.24;80.95
69281;SHT31;56392;51.082;17.080;2022-12-07T23:46:16;3.35;81.02
69281;SHT31;56392;51.082;17.080;2022-12-07T23:51:39;3.51;80.19
69281;SHT31;56392;51.082;17.080;2022-12-07T23:57:02;3.60;79.66
